createdAt,value
2022-12-27T00:01:55.774Z,55.63
2022-12-27T00:04:25.645Z,55.93
2022-12-27T00:06:54.236Z,55.17
2022-12-27T00:09:22.902Z,51.40
2022-12-27T00:11:56.363Z,49.30
2022-12-27T00:14:30.477Z,51.60
2022-12-27T00:16:59.050Z,49.20
2022-12-27T00:19:27.598Z,48.10
2022-12-27T00:21:56.400Z,50.47
2022-12-27T00:24:24.960Z,49.83
2022-12-27T00:26:53.466Z,50.00
2022-12-27T00:29:23.063Z,51.77
2022-12-27T00:31:53.574Z,48.47
2022-12-27T00:34:22.176Z,49.33
2022-12-27T00:36:50.707Z,53.57
2022-12-27T00:39:19.324Z,48.17
2022-12-27T00:41:47.853Z,51.10
2022-12-27T00:44:16.598Z,49.20
2022-12-27T00:46:45.088Z,50.47
2022-12-27T00:49:15.056Z,47.70
2022-12-27T00:51:43.611Z,47.70
2022-12-27T00:54:12.105Z,46.83
2022-12-27T00:56:40.693Z,47.17
2022-12-27T00:59:12.332Z,46.67
2022-12-27T01:01:42.159Z,41.87
2022-12-27T01:04:15.807Z,45.97
2022-12-27T01:06:44.343Z,42.37
2022-12-27T01:09:12.889Z,42.37
2022-12-27T01:11:42.459Z,39.80
2022-12-27T01:14:11.964Z,38.00
2022-12-27T01:16:41.710Z,39.00
2022-12-27T01:19:10.305Z,38.50
2022-12-27T01:21:40.280Z,37.73
2022-12-27T01:24:09.264Z,37.53
2022-12-27T01:26:37.749Z,36.83
2022-12-27T01:29:07.521Z,42.17
2022-12-27T01:31:36.843Z,34.40
2022-12-27T01:34:05.490Z,35.07
2022-12-27T01:36:34.096Z,36.70
2022-12-27T01:39:04.804Z,35.40
2022-12-27T01:41:52.747Z,34.43
2022-12-27T01:44:53.449Z,34.30
2022-12-27T01:47:35.924Z,33.77
2022-12-27T01:50:13.893Z,35.87
2022-12-27T01:52:47.976Z,31.33
2022-12-27T01:55:23.894Z,34.97
2022-12-27T01:57:55.848Z,31.37
2022-12-27T02:00:24.465Z,32.90
2022-12-27T02:02:53.819Z,32.77
2022-12-27T02:05:25.485Z,32.20
2022-12-27T02:08:06.293Z,33.57
2022-12-27T02:10:36.458Z,33.37
2022-12-27T02:13:06.794Z,33.40
2022-12-27T02:15:35.974Z,32.63
2022-12-27T02:18:04.859Z,33.43
2022-12-27T02:20:57.767Z,37.27
2022-12-27T02:24:04.319Z,32.37
2022-12-27T02:26:43.103Z,37.63
2022-12-27T02:29:46.058Z,34.83
2022-12-27T02:32:19.963Z,33.10
2022-12-27T02:34:58.675Z,35.80
2022-12-27T02:37:30.467Z,32.97
2022-12-27T02:40:21.811Z,32.47
2022-12-27T02:43:14.133Z,30.87
2022-12-27T02:46:06.938Z,33.00
2022-12-27T02:48:52.553Z,30.10
2022-12-27T02:51:58.103Z,30.00
2022-12-27T02:54:45.030Z,30.10
2022-12-27T02:57:23.482Z,30.93
2022-12-27T03:00:23.189Z,30.37
2022-12-27T03:03:25.069Z,32.00
2022-12-27T03:06:42.248Z,31.93
2022-12-27T03:09:51.535Z,32.30
2022-12-27T03:12:47.520Z,32.60
2022-12-27T03:15:48.680Z,31.40
2022-12-27T03:18:22.738Z,32.23
2022-12-27T03:21:09.236Z,30.60
2022-12-27T03:23:57.494Z,31.07
2022-12-27T03:26:29.694Z,29.43
2022-12-27T03:29:17.871Z,32.33
2022-12-27T03:32:08.585Z,30.77
2022-12-27T03:34:42.156Z,28.33
2022-12-27T03:37:32.280Z,30.30
2022-12-27T03:40:09.135Z,27.57
2022-12-27T03:42:58.124Z,29.33
2022-12-27T03:45:45.954Z,27.73
2022-12-27T03:48:19.306Z,27.47
2022-12-27T03:50:55.262Z,26.30
2022-12-27T03:53:29.920Z,27.33
2022-12-27T03:55:59.009Z,27.20
2022-12-27T03:58:27.536Z,27.07
2022-12-27T04:00:56.283Z,23.97
2022-12-27T04:03:24.824Z,23.67
2022-12-27T04:05:54.772Z,23.13
2022-12-27T04:08:40.701Z,19.77
2022-12-27T04:11:26.445Z,18.90
2022-12-27T04:14:12.485Z,18.70
2022-12-27T04:16:58.431Z,19.37
2022-12-27T04:19:44.625Z,18.57
2022-12-27T04:22:32.304Z,19.33
2022-12-27T04:25:18.394Z,18.93
2022-12-27T04:28:04.497Z,18.73
2022-12-27T04:30:51.409Z,21.37
2022-12-27T04:33:37.361Z,22.13
2022-12-27T04:36:06.789Z,24.87
2022-12-27T04:38:36.803Z,23.83
2022-12-27T04:41:22.763Z,24.23
2022-12-27T04:44:08.694Z,20.03
2022-12-27T04:46:54.310Z,17.90
2022-12-27T04:49:50.059Z,17.10
2022-12-27T04:52:38.874Z,15.67
2022-12-27T04:55:17.072Z,18.10
2022-12-27T04:57:45.662Z,14.63
2022-12-27T05:00:33.299Z,13.63
2022-12-27T05:03:03.378Z,13.70
2022-12-27T05:05:32.163Z,14.43
2022-12-27T05:08:21.942Z,14.37
2022-12-27T05:11:09.327Z,14.97
2022-12-27T05:13:55.495Z,15.07
2022-12-27T05:16:24.238Z,15.77
2022-12-27T05:18:54.121Z,18.10
2022-12-27T05:21:22.968Z,15.53
2022-12-27T05:24:09.193Z,15.90
2022-12-27T05:26:39.591Z,14.53
2022-12-27T05:29:09.001Z,14.47
2022-12-27T05:31:37.596Z,14.90
2022-12-27T05:34:06.972Z,16.17
2022-12-27T05:36:35.541Z,15.70
2022-12-27T05:39:04.206Z,16.20
2022-12-27T05:41:32.738Z,16.53
2022-12-27T05:44:07.131Z,17.03
2022-12-27T05:46:36.251Z,16.87
2022-12-27T05:49:05.324Z,16.93
2022-12-27T05:51:33.895Z,16.77
2022-12-27T05:54:02.414Z,17.63
2022-12-27T05:56:30.975Z,17.30
2022-12-27T05:58:59.632Z,14.53
2022-12-27T06:01:31.014Z,15.70
2022-12-27T06:03:59.665Z,15.27
2022-12-27T06:06:28.158Z,15.70
2022-12-27T06:08:56.822Z,15.27
2022-12-27T06:11:26.175Z,15.27
2022-12-27T06:13:55.544Z,15.00
2022-12-27T06:16:25.691Z,15.50
2022-12-27T06:18:55.683Z,15.00
2022-12-27T06:21:24.236Z,15.53
2022-12-27T06:23:52.787Z,16.77
2022-12-27T06:26:22.937Z,16.00
2022-12-27T06:28:51.949Z,17.27
2022-12-27T06:31:21.718Z,18.10
2022-12-27T06:33:51.672Z,16.80
2022-12-27T06:36:23.117Z,18.00
2022-12-27T06:38:51.800Z,17.40
2022-12-27T06:41:20.793Z,16.53
2022-12-27T06:43:50.053Z,15.37
2022-12-27T06:46:19.818Z,15.87
2022-12-27T06:48:48.800Z,16.20
2022-12-27T06:51:19.710Z,18.17
2022-12-27T06:53:50.209Z,16.53
2022-12-27T06:56:20.776Z,16.90
2022-12-27T06:58:50.760Z,16.13
2022-12-27T07:01:21.971Z,16.47
2022-12-27T07:03:51.792Z,18.37
2022-12-27T07:06:21.383Z,17.60
2022-12-27T07:08:52.028Z,17.90
2022-12-27T07:11:22.158Z,18.67
2022-12-27T07:13:52.298Z,17.57
2022-12-27T07:16:22.782Z,20.10
2022-12-27T07:18:51.420Z,16.70
2022-12-27T07:21:22.380Z,17.20
2022-12-27T07:23:52.973Z,18.13
2022-12-27T07:26:24.529Z,40.30
2022-12-27T07:28:55.236Z,34.30
2022-12-27T07:31:26.871Z,25.80
2022-12-27T07:33:55.479Z,24.00
2022-12-27T07:36:26.283Z,22.80
2022-12-27T07:38:56.310Z,19.77
2022-12-27T07:41:25.170Z,21.87
2022-12-27T07:43:55.002Z,22.00
2022-12-27T07:46:25.901Z,27.20
2022-12-27T07:48:56.035Z,25.10
2022-12-27T07:51:25.599Z,21.43
2022-12-27T07:53:55.872Z,18.43
2022-12-27T07:56:26.915Z,18.40
2022-12-27T07:58:57.210Z,18.37
2022-12-27T08:01:27.926Z,18.33
2022-12-27T08:03:57.124Z,18.70
2022-12-27T08:06:29.363Z,22.83
2022-12-27T08:09:00.293Z,17.93
2022-12-27T08:11:30.252Z,26.30
2022-12-27T08:13:58.779Z,20.20
2022-12-27T08:16:28.182Z,17.93
2022-12-27T08:18:58.409Z,16.90
2022-12-27T08:21:28.331Z,16.17
2022-12-27T08:23:58.319Z,16.47
2022-12-27T08:26:26.902Z,17.00
2022-12-27T08:28:55.486Z,15.20
2022-12-27T08:31:24.202Z,16.83
2022-12-27T08:33:58.256Z,15.50
2022-12-27T08:39:17.210Z,17.93
2022-12-27T08:41:45.924Z,15.43
2022-12-27T08:44:14.719Z,14.50
2022-12-27T08:46:43.281Z,13.53
2022-12-27T08:49:11.949Z,13.27
2022-12-27T08:51:41.486Z,13.47
2022-12-27T08:54:10.589Z,13.13
2022-12-27T08:56:40.552Z,12.83
2022-12-27T08:59:09.039Z,12.77
2022-12-27T09:01:37.663Z,12.70
2022-12-27T09:04:06.648Z,12.60
2022-12-27T09:06:35.286Z,12.63
2022-12-27T09:09:03.780Z,12.23
2022-12-27T09:11:34.600Z,13.57
2022-12-27T09:14:06.142Z,13.00
2022-12-27T09:16:35.855Z,13.73
2022-12-27T09:19:05.309Z,12.20
2022-12-27T09:21:35.156Z,10.83
2022-12-27T09:24:03.953Z,10.90
2022-12-27T09:26:32.600Z,11.33
2022-12-27T09:29:01.633Z,12.10
2022-12-27T09:31:31.664Z,11.10
2022-12-27T09:34:00.480Z,11.53
2022-12-27T09:36:31.124Z,9.73
2022-12-27T09:39:00.962Z,11.70
2022-12-27T09:44:39.573Z,11.47
2022-12-27T09:47:14.005Z,9.87
2022-12-27T09:49:46.818Z,12.13
2022-12-27T09:52:19.481Z,10.57
2022-12-27T09:55:04.455Z,11.20
2022-12-27T09:57:38.344Z,11.73
2022-12-27T10:00:16.580Z,11.63
2022-12-27T10:02:46.785Z,11.23
2022-12-27T10:05:23.111Z,10.53
2022-12-27T10:08:02.492Z,11.37
2022-12-27T10:10:42.768Z,13.87
2022-12-27T10:13:21.636Z,11.50
2022-12-27T10:16:00.900Z,12.80
2022-12-27T10:18:43.066Z,13.13
2022-12-27T10:21:20.136Z,12.20
2022-12-27T10:23:54.753Z,12.50
2022-12-27T10:26:23.665Z,15.00
2022-12-27T10:28:57.330Z,18.70
2022-12-27T10:31:26.928Z,20.30
2022-12-27T10:33:57.037Z,14.10
2022-12-27T10:36:27.733Z,14.17
2022-12-27T10:38:56.913Z,20.93
2022-12-27T10:41:34.811Z,29.63
2022-12-27T10:44:03.474Z,29.83
2022-12-27T10:46:34.072Z,27.53
2022-12-27T10:49:20.752Z,30.93
2022-12-27T10:51:51.206Z,26.75
2022-12-27T10:54:24.154Z,27.17
2022-12-27T10:56:52.802Z,23.43
2022-12-27T10:59:23.290Z,25.43
2022-12-27T11:02:15.967Z,19.45
2022-12-27T11:05:00.156Z,23.60
2022-12-27T11:07:33.894Z,23.27
2022-12-27T11:10:16.480Z,18.37
2022-12-27T11:12:58.031Z,20.20
2022-12-27T11:15:27.801Z,21.88
2022-12-27T11:17:58.861Z,21.73
2022-12-27T11:20:31.928Z,21.77
2022-12-27T11:23:03.813Z,19.75
2022-12-27T11:25:33.322Z,19.33
2022-12-27T11:28:03.972Z,19.98
2022-12-27T11:30:35.410Z,18.90
2022-12-27T11:33:07.481Z,20.25
2022-12-27T11:35:48.463Z,23.30
2022-12-27T11:38:24.889Z,19.48
2022-12-27T11:41:01.259Z,18.48
2022-12-27T11:43:36.196Z,18.42
2022-12-27T11:46:09.479Z,21.73
2022-12-27T11:48:43.348Z,19.60
2022-12-27T11:51:47.650Z,23.40
2022-12-27T11:54:30.962Z,18.83
2022-12-27T11:57:10.403Z,22.42
2022-12-27T11:59:54.342Z,20.58
2022-12-27T12:02:53.076Z,20.35
2022-12-27T12:05:58.653Z,20.50
2022-12-27T12:09:11.448Z,19.42
2022-12-27T12:11:57.463Z,22.15
2022-12-27T12:14:51.571Z,27.15
2022-12-27T12:17:47.819Z,22.23
2022-12-27T12:20:39.797Z,23.58
2022-12-27T12:23:13.647Z,24.17
2022-12-27T12:26:07.544Z,22.98
2022-12-27T12:29:18.817Z,24.23
2022-12-27T12:32:22.565Z,22.25
2022-12-27T12:35:07.626Z,21.52
2022-12-27T12:38:03.100Z,19.10
2022-12-27T12:40:51.981Z,22.05
2022-12-27T12:43:41.572Z,21.67
2022-12-27T12:46:27.340Z,19.50
2022-12-27T12:49:19.894Z,22.75
2022-12-27T12:52:19.386Z,18.55
2022-12-27T12:55:15.719Z,19.50
2022-12-27T12:57:53.704Z,21.30
2022-12-27T13:00:47.592Z,20.52
2022-12-27T13:03:40.855Z,20.13
2022-12-27T13:06:19.683Z,19.05
2022-12-27T13:08:56.467Z,18.63
2022-12-27T13:11:43.918Z,17.90
2022-12-27T13:14:28.656Z,18.08
2022-12-27T13:17:08.272Z,20.02
2022-12-27T13:19:52.015Z,20.35
2022-12-27T13:22:32.875Z,22.38
2022-12-27T13:25:16.257Z,18.65
2022-12-27T13:27:55.687Z,21.30
2022-12-27T13:30:29.109Z,24.08
2022-12-27T13:33:16.891Z,22.77
2022-12-27T13:36:01.875Z,21.40
2022-12-27T13:38:41.859Z,18.60
2022-12-27T13:41:30.476Z,20.00
2022-12-27T13:44:19.286Z,19.20
2022-12-27T13:47:39.198Z,20.45
2022-12-27T13:50:34.817Z,21.15
2022-12-27T13:53:30.126Z,23.30
2022-12-27T13:56:35.247Z,21.10
2022-12-27T13:59:11.481Z,23.00
2022-12-27T14:02:10.721Z,21.73
2022-12-27T14:04:59.837Z,24.02
2022-12-27T14:07:51.047Z,22.83
2022-12-27T14:10:32.698Z,23.08
2022-12-27T14:13:02.900Z,23.13
2022-12-27T14:16:01.117Z,26.40
2022-12-27T14:18:43.396Z,22.58
2022-12-27T14:21:36.650Z,21.08
2022-12-27T14:24:21.044Z,20.95
2022-12-27T14:27:39.155Z,22.60
2022-12-27T14:30:33.190Z,23.45
2022-12-27T14:33:39.846Z,22.35
2022-12-27T14:36:42.746Z,23.17
2022-12-27T14:39:48.252Z,23.38
2022-12-27T14:42:34.617Z,24.77
2022-12-27T14:45:35.739Z,28.40
2022-12-27T14:48:43.845Z,31.10
2022-12-27T14:52:12.459Z,30.45
2022-12-27T14:55:13.263Z,30.30
2022-12-27T14:57:52.763Z,29.05
2022-12-27T15:00:23.272Z,33.00
2022-12-27T15:03:19.102Z,32.42
2022-12-27T15:06:04.113Z,32.33
2022-12-27T15:08:50.355Z,31.02
2022-12-27T15:11:50.295Z,33.63
2022-12-27T15:14:37.119Z,33.47
2022-12-27T15:17:18.766Z,32.60
2022-12-27T15:20:17.733Z,32.30
2022-12-27T15:22:58.147Z,32.37
2022-12-27T15:25:37.772Z,33.90
2022-12-27T15:28:15.846Z,34.17
2022-12-27T15:30:51.862Z,32.47
2022-12-27T15:33:30.977Z,36.77
2022-12-27T15:36:05.279Z,31.47
2022-12-27T15:38:45.249Z,38.43
2022-12-27T15:41:38.276Z,40.60
2022-12-27T15:44:40.927Z,35.67
2022-12-27T15:47:47.574Z,38.03
2022-12-27T15:50:36.086Z,34.80
2022-12-27T15:53:35.975Z,37.17
2022-12-27T15:56:34.902Z,37.17
2022-12-27T15:59:36.816Z,38.73
2022-12-27T16:02:38.484Z,38.13
2022-12-27T16:05:13.712Z,36.73
2022-12-27T16:07:48.109Z,41.33
2022-12-27T16:10:50.034Z,41.30
2022-12-27T16:13:42.259Z,40.07
2022-12-27T16:16:58.005Z,44.27
2022-12-27T16:20:14.604Z,37.07
2022-12-27T16:22:45.661Z,42.73
2022-12-27T16:25:30.626Z,43.10
2022-12-27T16:28:04.098Z,42.33
2022-12-27T16:30:44.009Z,45.70
2022-12-27T16:33:35.105Z,49.50
2022-12-27T16:36:06.777Z,52.83
2022-12-27T16:38:36.013Z,48.87
2022-12-27T16:41:16.531Z,50.10
2022-12-27T16:43:54.293Z,51.07
2022-12-27T16:46:55.324Z,51.27
2022-12-27T16:49:48.191Z,52.73
2022-12-27T16:52:34.246Z,54.30
2022-12-27T16:55:20.917Z,54.63
2022-12-27T16:57:51.143Z,57.80
2022-12-27T17:00:44.149Z,60.23
2022-12-27T17:03:33.863Z,67.13
2022-12-27T17:06:34.607Z,64.43
2022-12-27T17:09:52.602Z,102.70
2022-12-27T17:12:46.789Z,96.63
2022-12-27T17:15:15.451Z,109.30
2022-12-27T17:17:46.791Z,89.47
2022-12-27T17:20:19.070Z,81.47
2022-12-27T17:22:49.556Z,98.80
2022-12-27T17:25:22.880Z,107.67
2022-12-27T17:28:04.091Z,108.20
2022-12-27T17:30:44.316Z,82.73
2022-12-27T17:33:40.062Z,88.80
2022-12-27T17:36:41.184Z,89.67
2022-12-27T17:39:24.730Z,84.90
2022-12-27T17:42:16.866Z,84.27
2022-12-27T17:45:02.611Z,82.67
2022-12-27T17:48:23.273Z,80.67
2022-12-27T17:50:54.777Z,73.03
2022-12-27T17:53:42.466Z,75.43
2022-12-27T17:56:36.671Z,74.77
2022-12-27T17:59:08.322Z,71.60
2022-12-27T18:01:42.293Z,81.20
2022-12-27T18:04:20.779Z,76.93
2022-12-27T18:06:49.347Z,106.17
2022-12-27T18:09:36.607Z,102.77
2022-12-27T18:12:12.812Z,81.47
2022-12-27T18:14:42.094Z,74.00
2022-12-27T18:17:28.795Z,83.60
2022-12-27T18:19:57.963Z,75.00
2022-12-27T18:22:26.831Z,76.37
2022-12-27T18:24:55.332Z,78.00
2022-12-27T18:27:27.181Z,70.37
2022-12-27T18:29:55.713Z,70.83
2022-12-27T18:32:25.980Z,69.97
2022-12-27T18:34:58.183Z,94.50
2022-12-27T18:37:27.379Z,87.13
2022-12-27T18:40:00.308Z,87.43
2022-12-27T18:42:34.480Z,85.20
2022-12-27T18:45:06.006Z,92.93
2022-12-27T18:47:39.290Z,80.63
2022-12-27T18:50:17.383Z,72.70
2022-12-27T18:52:51.276Z,70.93
2022-12-27T18:55:27.567Z,67.43
2022-12-27T18:58:06.448Z,59.67
2022-12-27T19:00:48.922Z,62.07
2022-12-27T19:03:19.612Z,53.33
2022-12-27T19:06:13.529Z,46.47
2022-12-27T19:08:48.249Z,42.33
2022-12-27T19:11:22.107Z,36.73
2022-12-27T19:13:55.993Z,39.00
2022-12-27T19:16:26.774Z,36.23
2022-12-27T19:18:57.297Z,39.37
2022-12-27T19:21:33.003Z,39.43
2022-12-27T19:24:36.840Z,39.37
2022-12-27T19:27:23.284Z,53.77
2022-12-27T19:29:54.361Z,40.07
2022-12-27T19:32:27.091Z,40.17
2022-12-27T19:34:59.463Z,37.70
2022-12-27T19:37:29.258Z,42.30
2022-12-27T19:39:59.124Z,47.47
2022-12-27T19:42:29.914Z,43.23
2022-12-27T19:45:00.954Z,45.10
2022-12-27T19:47:29.680Z,44.17
2022-12-27T19:49:58.231Z,43.70
2022-12-27T19:52:29.303Z,45.10
2022-12-27T19:55:03.580Z,46.63
2022-12-27T19:57:32.326Z,49.53
2022-12-27T20:00:05.432Z,50.10
2022-12-27T20:02:37.228Z,62.27
2022-12-27T20:05:06.265Z,62.57
2022-12-27T20:07:34.815Z,57.70
2022-12-27T20:10:03.273Z,51.30
2022-12-27T20:12:31.886Z,57.87
2022-12-27T20:15:02.328Z,53.87
2022-12-27T20:17:32.628Z,53.27
2022-12-27T20:20:01.171Z,53.20
2022-12-27T20:22:29.646Z,64.80
2022-12-27T20:24:58.170Z,64.63
2022-12-27T20:27:26.701Z,60.03
2022-12-27T20:29:55.279Z,71.33
2022-12-27T20:32:25.260Z,72.60
2022-12-27T20:34:53.783Z,77.17
2022-12-27T20:37:24.711Z,85.47
2022-12-27T20:39:53.521Z,84.07
2022-12-27T20:42:24.514Z,105.07
2022-12-27T20:44:53.201Z,82.97
2022-12-27T20:47:21.861Z,88.47
2022-12-27T20:49:51.903Z,82.60
2022-12-27T20:52:24.303Z,75.90
2022-12-27T20:54:55.729Z,73.37
2022-12-27T20:57:24.265Z,71.27
2022-12-27T20:59:53.151Z,76.03
2022-12-27T21:02:21.863Z,70.77
2022-12-27T21:04:54.181Z,72.87
2022-12-27T21:07:22.965Z,69.27
2022-12-27T21:09:51.577Z,93.97
2022-12-27T21:12:20.180Z,105.13
2022-12-27T21:14:50.078Z,72.60
2022-12-27T21:17:18.958Z,67.10
2022-12-27T21:19:47.501Z,72.87
2022-12-27T21:22:17.621Z,67.27
2022-12-27T21:24:46.207Z,61.07
2022-12-27T21:27:14.810Z,64.47
2022-12-27T21:29:43.278Z,61.70
2022-12-27T21:32:11.803Z,61.17
2022-12-27T21:34:41.363Z,61.90
2022-12-27T21:37:13.332Z,63.90
2022-12-27T21:39:43.618Z,66.77
2022-12-27T21:42:12.527Z,66.47
2022-12-27T21:44:41.048Z,68.67
2022-12-27T21:47:09.583Z,65.57
2022-12-27T21:49:40.490Z,57.57
2022-12-27T21:52:09.075Z,62.33
2022-12-27T21:54:37.646Z,57.07
2022-12-27T21:57:07.627Z,49.97
2022-12-27T21:59:36.183Z,47.50
2022-12-27T22:02:04.740Z,52.97
2022-12-27T22:04:33.405Z,59.90
2022-12-27T22:07:01.928Z,52.03
2022-12-27T22:09:30.456Z,66.37
2022-12-27T22:11:59.030Z,70.43
2022-12-27T22:14:33.289Z,78.50
2022-12-27T22:17:05.326Z,71.90
2022-12-27T22:19:33.913Z,61.97
2022-12-27T22:22:02.447Z,58.00
2022-12-27T22:24:31.019Z,51.60
2022-12-27T22:26:59.564Z,49.83
2022-12-27T22:29:34.966Z,49.47
2022-12-27T22:32:03.932Z,57.30
2022-12-27T22:34:32.503Z,66.07
2022-12-27T22:37:01.057Z,53.60
2022-12-27T22:39:29.753Z,50.37
2022-12-27T22:41:58.311Z,55.13
2022-12-27T22:44:28.873Z,60.53
2022-12-27T22:49:47.770Z,61.77
2022-12-27T22:52:16.326Z,55.17
2022-12-27T22:55:05.515Z,51.57
2022-12-27T22:57:33.348Z,50.93
2022-12-27T23:00:04.088Z,48.67
2022-12-27T23:02:34.189Z,48.17
2022-12-27T23:05:02.787Z,49.13
2022-12-27T23:08:06.126Z,49.70
2022-12-27T23:10:19.862Z,45.33
2022-12-27T23:12:48.444Z,51.90
2022-12-27T23:15:18.518Z,52.53
2022-12-27T23:17:49.185Z,60.13
2022-12-27T23:20:17.906Z,51.67
2022-12-27T23:22:46.411Z,49.10
2022-12-27T23:25:15.098Z,49.40
2022-12-27T23:27:43.616Z,44.97
2022-12-27T23:30:13.784Z,46.10
2022-12-27T23:32:43.786Z,43.87
2022-12-27T23:35:12.332Z,39.10
2022-12-27T23:37:40.833Z,38.77
2022-12-27T23:40:10.692Z,37.43
2022-12-27T23:42:39.277Z,34.57
2022-12-27T23:45:08.764Z,33.97
2022-12-27T23:47:37.286Z,35.73
2022-12-27T23:50:08.219Z,36.33
2022-12-27T23:52:36.745Z,33.27
2022-12-27T23:55:06.426Z,32.97
2022-12-27T23:57:34.959Z,30.27
